Archival Weather

South Haven Area Rgnl

South Haven, Michigan (KLWA)

Report from: Thursday, September 21, 2023 5:35 AM EDT
Current time: Tuesday, February 27, 2024 4:07 AM EST

Current weather – Weather history – Daily summaries
Weather forecast

Temperature16.1°C (61.0°F)
Dew point14.3°C (57.7°F)
Winds Calm
Visibility10 mi. (16.1 km)
Clouds Scattered clouds 12,000 ft. (3,658 m)
Altimeter30.17 in.Hg (1022 mB)
Relative humidity89 %
Density altitude71 ft. (22 m)
Remarks Fully automated report
Automated weather observing station with precipitation discriminator
Flight conditions Visual Meteorological Conditions
Raw dataKLWA 210935Z AUTO 00000KT 10SM SCT120 16/14 A3017 RMK AO2 T01610143
An error has occurred. This application may no longer respond until reloaded. Reload 🗙